Terminal Aerodrome Forecast
Issued by NWS

Home | Current Version | Previous Version | Graphics & Text | Print | Product List | Glossary On
Versions: 1 2 3 4 5 6 7 8 9 10 11 12 13 14 15 16 17
000
FTUS43 KMPX 210200 AAA
TAFRNH
TAF AMD
KRNH 210245Z 2103/2124 17008KT P6SM BKN050
     FM210900 18007KT P6SM SCT200
      TEMPO 2110/2112 4SM BR FEW010
     FM211400 17009G15KT 6SM HZ FEW080 SCT150=

USA.gov is the U.S. government's official web portal to all federal, state and local government web resources and services.